sensor_id;sensor_type;location;lat;lon;timestamp;P1;durP1;ratioP1;P2;durP2;ratioP2
51883;SDS011;37915;53.254;6.598;2023-01-13T00:02:21;20.50;;;4.60;;
51883;SDS011;37915;53.254;6.598;2023-01-13T00:04:47;17.55;;;4.30;;
51883;SDS011;37915;53.254;6.598;2023-01-13T00:07:13;21.13;;;4.78;;
51883;SDS011;37915;53.254;6.598;2023-01-13T00:09:38;16.85;;;4.63;;
51883;SDS011;37915;53.254;6.598;2023-01-13T00:12:04;23.13;;;4.38;;
51883;SDS011;37915;53.254;6.598;2023-01-13T00:14:34;18.73;;;4.53;;
51883;SDS011;37915;53.254;6.598;2023-01-13T00:17:00;23.30;;;7.47;;
51883;SDS011;37915;53.254;6.598;2023-01-13T00:19:27;21.13;;;4.50;;
51883;SDS011;37915;53.254;6.598;2023-01-13T00:21:53;18.90;;;4.88;;
51883;SDS011;37915;53.254;6.598;2023-01-13T00:24:18;23.70;;;5.43;;
51883;SDS011;37915;53.254;6.598;2023-01-13T00:26:44;24.83;;;5.10;;
51883;SDS011;37915;53.254;6.598;2023-01-13T00:29:10;24.35;;;5.03;;
51883;SDS011;37915;53.254;6.598;2023-01-13T00:31:36;15.43;;;4.10;;
51883;SDS011;37915;53.254;6.598;2023-01-13T00:34:02;29.30;;;5.22;;
51883;SDS011;37915;53.254;6.598;2023-01-13T00:36:28;18.23;;;5.45;;
51883;SDS011;37915;53.254;6.598;2023-01-13T00:38:54;17.88;;;4.30;;
51883;SDS011;37915;53.254;6.598;2023-01-13T00:41:21;22.65;;;4.63;;
51883;SDS011;37915;53.254;6.598;2023-01-13T00:43:48;17.23;;;4.53;;
51883;SDS011;37915;53.254;6.598;2023-01-13T00:46:15;19.25;;;5.70;;
51883;SDS011;37915;53.254;6.598;2023-01-13T00:48:42;23.90;;;4.90;;
51883;SDS011;37915;53.254;6.598;2023-01-13T00:51:13;26.55;;;5.47;;
51883;SDS011;37915;53.254;6.598;2023-01-13T00:53:42;23.33;;;4.97;;
51883;SDS011;37915;53.254;6.598;2023-01-13T00:58:42;24.73;;;5.53;;
51883;SDS011;37915;53.254;6.598;2023-01-13T01:01:13;23.63;;;6.05;;
51883;SDS011;37915;53.254;6.598;2023-01-13T01:03:41;23.77;;;4.95;;
51883;SDS011;37915;53.254;6.598;2023-01-13T01:06:17;24.63;;;7.07;;
51883;SDS011;37915;53.254;6.598;2023-01-13T01:08:48;25.65;;;6.45;;
51883;SDS011;37915;53.254;6.598;2023-01-13T01:11:15;26.08;;;5.82;;
51883;SDS011;37915;53.254;6.598;2023-01-13T01:13:42;29.70;;;6.05;;
51883;SDS011;37915;53.254;6.598;2023-01-13T01:16:11;25.25;;;5.15;;
51883;SDS011;37915;53.254;6.598;2023-01-13T01:18:40;33.97;;;6.53;;
51883;SDS011;37915;53.254;6.598;2023-01-13T01:21:07;23.25;;;5.68;;
51883;SDS011;37915;53.254;6.598;2023-01-13T01:23:34;23.33;;;5.68;;
51883;SDS011;37915;53.254;6.598;2023-01-13T01:26:01;25.80;;;5.90;;
51883;SDS011;37915;53.254;6.598;2023-01-13T01:28:27;38.08;;;7.72;;
51883;SDS011;37915;53.254;6.598;2023-01-13T01:30:53;26.33;;;6.30;;
51883;SDS011;37915;53.254;6.598;2023-01-13T01:33:19;26.73;;;6.47;;
51883;SDS011;37915;53.254;6.598;2023-01-13T01:35:46;23.25;;;6.13;;
51883;SDS011;37915;53.254;6.598;2023-01-13T01:38:12;28.40;;;6.63;;
51883;SDS011;37915;53.254;6.598;2023-01-13T01:40:37;31.90;;;7.30;;
51883;SDS011;37915;53.254;6.598;2023-01-13T01:43:10;23.42;;;7.00;;
51883;SDS011;37915;53.254;6.598;2023-01-13T01:45:59;26.80;;;6.25;;
51883;SDS011;37915;53.254;6.598;2023-01-13T01:48:30;23.58;;;5.90;;
51883;SDS011;37915;53.254;6.598;2023-01-13T01:51:01;25.38;;;5.18;;
51883;SDS011;37915;53.254;6.598;2023-01-13T01:53:27;21.17;;;5.22;;
51883;SDS011;37915;53.254;6.598;2023-01-13T01:55:54;26.98;;;6.00;;
51883;SDS011;37915;53.254;6.598;2023-01-13T01:58:43;30.15;;;6.55;;
51883;SDS011;37915;53.254;6.598;2023-01-13T02:01:12;23.25;;;6.18;;
51883;SDS011;37915;53.254;6.598;2023-01-13T02:03:39;29.08;;;5.43;;
51883;SDS011;37915;53.254;6.598;2023-01-13T02:06:09;21.23;;;4.88;;
51883;SDS011;37915;53.254;6.598;2023-01-13T02:08:36;25.50;;;6.05;;
51883;SDS011;37915;53.254;6.598;2023-01-13T02:11:03;25.40;;;6.47;;
51883;SDS011;37915;53.254;6.598;2023-01-13T02:13:29;22.38;;;6.50;;
51883;SDS011;37915;53.254;6.598;2023-01-13T02:16:03;25.88;;;6.70;;
51883;SDS011;37915;53.254;6.598;2023-01-13T02:21:33;20.73;;;5.28;;
51883;SDS011;37915;53.254;6.598;2023-01-13T02:33:02;26.25;;;5.07;;
51883;SDS011;37915;53.254;6.598;2023-01-13T02:35:51;36.65;;;6.57;;
51883;SDS011;37915;53.254;6.598;2023-01-13T02:38:24;27.05;;;5.72;;
51883;SDS011;37915;53.254;6.598;2023-01-13T02:40:57;25.13;;;6.05;;
51883;SDS011;37915;53.254;6.598;2023-01-13T02:43:47;19.80;;;5.30;;
51883;SDS011;37915;53.254;6.598;2023-01-13T02:46:31;17.92;;;4.75;;
51883;SDS011;37915;53.254;6.598;2023-01-13T02:49:18;24.73;;;6.03;;
51883;SDS011;37915;53.254;6.598;2023-01-13T02:52:04;23.33;;;5.83;;
51883;SDS011;37915;53.254;6.598;2023-01-13T02:54:38;29.55;;;5.63;;
51883;SDS011;37915;53.254;6.598;2023-01-13T02:57:09;34.22;;;7.05;;
51883;SDS011;37915;53.254;6.598;2023-01-13T02:59:37;32.40;;;6.65;;
51883;SDS011;37915;53.254;6.598;2023-01-13T03:02:04;27.02;;;6.03;;
51883;SDS011;37915;53.254;6.598;2023-01-13T03:04:44;28.48;;;5.65;;
51883;SDS011;37915;53.254;6.598;2023-01-13T03:07:14;24.23;;;8.10;;
51883;SDS011;37915;53.254;6.598;2023-01-13T03:10:18;22.75;;;5.43;;
51883;SDS011;37915;53.254;6.598;2023-01-13T03:15:52;19.02;;;5.85;;
51883;SDS011;37915;53.254;6.598;2023-01-13T03:24:24;24.05;;;5.03;;
51883;SDS011;37915;53.254;6.598;2023-01-13T03:29:33;22.52;;;5.82;;
51883;SDS011;37915;53.254;6.598;2023-01-13T03:34:49;26.58;;;5.65;;
51883;SDS011;37915;53.254;6.598;2023-01-13T03:37:19;22.58;;;4.70;;
51883;SDS011;37915;53.254;6.598;2023-01-13T03:39:51;19.55;;;5.10;;
51883;SDS011;37915;53.254;6.598;2023-01-13T03:42:24;28.63;;;5.40;;
51883;SDS011;37915;53.254;6.598;2023-01-13T03:44:57;17.05;;;4.47;;
51883;SDS011;37915;53.254;6.598;2023-01-13T03:47:46;22.67;;;6.50;;
51883;SDS011;37915;53.254;6.598;2023-01-13T03:50:19;25.88;;;6.30;;
51883;SDS011;37915;53.254;6.598;2023-01-13T03:52:54;17.20;;;4.10;;
51883;SDS011;37915;53.254;6.598;2023-01-13T03:55:32;18.40;;;5.50;;
51883;SDS011;37915;53.254;6.598;2023-01-13T04:00:32;21.35;;;4.47;;
51883;SDS011;37915;53.254;6.598;2023-01-13T04:03:05;20.02;;;4.95;;
51883;SDS011;37915;53.254;6.598;2023-01-13T04:05:35;17.17;;;4.20;;
51883;SDS011;37915;53.254;6.598;2023-01-13T04:10:57;21.27;;;5.40;;
51883;SDS011;37915;53.254;6.598;2023-01-13T04:13:32;21.85;;;5.13;;
51883;SDS011;37915;53.254;6.598;2023-01-13T04:16:04;18.02;;;4.63;;
51883;SDS011;37915;53.254;6.598;2023-01-13T04:18:37;26.42;;;5.38;;
51883;SDS011;37915;53.254;6.598;2023-01-13T04:21:04;21.60;;;5.55;;
51883;SDS011;37915;53.254;6.598;2023-01-13T04:23:31;24.10;;;4.82;;
51883;SDS011;37915;53.254;6.598;2023-01-13T04:25:57;20.08;;;4.40;;
51883;SDS011;37915;53.254;6.598;2023-01-13T04:28:24;26.25;;;5.60;;
51883;SDS011;37915;53.254;6.598;2023-01-13T04:30:50;33.00;;;6.55;;
51883;SDS011;37915;53.254;6.598;2023-01-13T04:33:16;18.08;;;5.20;;
51883;SDS011;37915;53.254;6.598;2023-01-13T04:35:43;24.40;;;6.00;;
51883;SDS011;37915;53.254;6.598;2023-01-13T04:38:16;16.67;;;5.55;;
51883;SDS011;37915;53.254;6.598;2023-01-13T04:40:43;21.70;;;6.90;;
51883;SDS011;37915;53.254;6.598;2023-01-13T04:43:09;20.20;;;5.50;;
51883;SDS011;37915;53.254;6.598;2023-01-13T04:45:35;18.30;;;4.70;;
51883;SDS011;37915;53.254;6.598;2023-01-13T04:48:01;25.02;;;5.85;;
51883;SDS011;37915;53.254;6.598;2023-01-13T04:50:27;22.00;;;6.07;;
51883;SDS011;37915;53.254;6.598;2023-01-13T04:52:53;26.23;;;5.80;;
51883;SDS011;37915;53.254;6.598;2023-01-13T04:55:20;19.48;;;4.90;;
51883;SDS011;37915;53.254;6.598;2023-01-13T04:57:47;27.33;;;5.45;;
51883;SDS011;37915;53.254;6.598;2023-01-13T05:00:14;24.00;;;5.63;;
51883;SDS011;37915;53.254;6.598;2023-01-13T05:02:41;21.98;;;4.68;;
51883;SDS011;37915;53.254;6.598;2023-01-13T05:05:07;26.25;;;5.95;;
51883;SDS011;37915;53.254;6.598;2023-01-13T05:07:33;23.65;;;4.80;;
51883;SDS011;37915;53.254;6.598;2023-01-13T05:09:59;15.90;;;4.35;;
51883;SDS011;37915;53.254;6.598;2023-01-13T05:12:25;21.52;;;5.03;;
51883;SDS011;37915;53.254;6.598;2023-01-13T05:15:13;22.63;;;5.53;;
51883;SDS011;37915;53.254;6.598;2023-01-13T05:17:58;15.90;;;4.47;;
51883;SDS011;37915;53.254;6.598;2023-01-13T05:20:24;19.40;;;4.50;;
51883;SDS011;37915;53.254;6.598;2023-01-13T05:22:50;18.95;;;4.45;;
51883;SDS011;37915;53.254;6.598;2023-01-13T05:25:36;25.33;;;5.22;;
51883;SDS011;37915;53.254;6.598;2023-01-13T05:28:04;23.90;;;6.18;;
51883;SDS011;37915;53.254;6.598;2023-01-13T05:30:31;19.92;;;4.45;;
51883;SDS011;37915;53.254;6.598;2023-01-13T05:33:00;27.77;;;5.38;;
51883;SDS011;37915;53.254;6.598;2023-01-13T05:35:25;20.98;;;4.53;;
51883;SDS011;37915;53.254;6.598;2023-01-13T05:37:53;22.15;;;4.95;;
51883;SDS011;37915;53.254;6.598;2023-01-13T05:40:19;25.23;;;5.22;;
51883;SDS011;37915;53.254;6.598;2023-01-13T05:43:05;16.05;;;4.72;;
51883;SDS011;37915;53.254;6.598;2023-01-13T05:46:01;19.05;;;4.63;;
51883;SDS011;37915;53.254;6.598;2023-01-13T05:48:28;21.27;;;4.13;;
51883;SDS011;37915;53.254;6.598;2023-01-13T05:50:59;22.42;;;4.90;;
51883;SDS011;37915;53.254;6.598;2023-01-13T05:53:25;18.52;;;4.50;;
51883;SDS011;37915;53.254;6.598;2023-01-13T05:55:51;14.43;;;2.92;;
51883;SDS011;37915;53.254;6.598;2023-01-13T05:58:18;23.30;;;4.40;;
51883;SDS011;37915;53.254;6.598;2023-01-13T06:00:45;19.85;;;5.15;;
51883;SDS011;37915;53.254;6.598;2023-01-13T06:03:11;13.85;;;4.30;;
51883;SDS011;37915;53.254;6.598;2023-01-13T06:05:38;19.35;;;5.65;;
51883;SDS011;37915;53.254;6.598;2023-01-13T06:08:05;20.60;;;4.18;;
51883;SDS011;37915;53.254;6.598;2023-01-13T06:10:34;17.02;;;4.15;;
51883;SDS011;37915;53.254;6.598;2023-01-13T06:13:00;12.68;;;3.95;;
51883;SDS011;37915;53.254;6.598;2023-01-13T06:15:26;16.92;;;3.97;;
51883;SDS011;37915;53.254;6.598;2023-01-13T06:17:51;21.27;;;4.70;;
51883;SDS011;37915;53.254;6.598;2023-01-13T06:20:17;17.00;;;4.72;;
51883;SDS011;37915;53.254;6.598;2023-01-13T06:22:46;13.15;;;3.25;;
51883;SDS011;37915;53.254;6.598;2023-01-13T06:25:19;19.50;;;4.85;;
51883;SDS011;37915;53.254;6.598;2023-01-13T06:28:02;16.50;;;3.63;;
51883;SDS011;37915;53.254;6.598;2023-01-13T06:30:29;14.43;;;4.15;;
51883;SDS011;37915;53.254;6.598;2023-01-13T06:33:01;25.00;;;4.90;;
51883;SDS011;37915;53.254;6.598;2023-01-13T06:35:31;12.82;;;3.50;;
51883;SDS011;37915;53.254;6.598;2023-01-13T06:38:00;20.48;;;4.50;;
51883;SDS011;37915;53.254;6.598;2023-01-13T06:40:28;18.00;;;4.38;;
51883;SDS011;37915;53.254;6.598;2023-01-13T06:42:54;18.63;;;3.50;;
51883;SDS011;37915;53.254;6.598;2023-01-13T06:45:40;20.55;;;4.65;;
51883;SDS011;37915;53.254;6.598;2023-01-13T06:48:07;15.82;;;4.07;;
51883;SDS011;37915;53.254;6.598;2023-01-13T06:50:33;14.00;;;4.10;;
51883;SDS011;37915;53.254;6.598;2023-01-13T06:52:58;14.48;;;3.60;;
51883;SDS011;37915;53.254;6.598;2023-01-13T06:55:24;10.35;;;2.95;;
51883;SDS011;37915;53.254;6.598;2023-01-13T06:57:54;20.48;;;4.07;;
51883;SDS011;37915;53.254;6.598;2023-01-13T07:00:21;17.83;;;4.25;;
51883;SDS011;37915;53.254;6.598;2023-01-13T07:02:49;14.98;;;3.47;;
51883;SDS011;37915;53.254;6.598;2023-01-13T07:05:15;19.80;;;3.70;;
51883;SDS011;37915;53.254;6.598;2023-01-13T07:07:42;21.52;;;4.57;;
51883;SDS011;37915;53.254;6.598;2023-01-13T07:10:09;16.83;;;3.88;;
51883;SDS011;37915;53.254;6.598;2023-01-13T07:12:37;16.17;;;4.35;;
51883;SDS011;37915;53.254;6.598;2023-01-13T07:15:22;19.73;;;5.43;;
51883;SDS011;37915;53.254;6.598;2023-01-13T07:17:49;14.70;;;3.08;;
51883;SDS011;37915;53.254;6.598;2023-01-13T07:20:15;15.07;;;3.28;;
51883;SDS011;37915;53.254;6.598;2023-01-13T07:22:41;13.60;;;3.30;;
51883;SDS011;37915;53.254;6.598;2023-01-13T07:25:07;14.45;;;3.58;;
51883;SDS011;37915;53.254;6.598;2023-01-13T07:27:34;11.98;;;2.58;;
51883;SDS011;37915;53.254;6.598;2023-01-13T07:30:00;15.80;;;3.55;;
51883;SDS011;37915;53.254;6.598;2023-01-13T07:32:26;17.40;;;4.13;;
51883;SDS011;37915;53.254;6.598;2023-01-13T07:34:52;14.98;;;3.50;;
51883;SDS011;37915;53.254;6.598;2023-01-13T07:37:18;17.08;;;3.45;;
51883;SDS011;37915;53.254;6.598;2023-01-13T07:39:44;17.08;;;3.30;;
51883;SDS011;37915;53.254;6.598;2023-01-13T07:42:10;15.57;;;3.78;;
51883;SDS011;37915;53.254;6.598;2023-01-13T07:44:55;13.07;;;3.13;;
51883;SDS011;37915;53.254;6.598;2023-01-13T07:47:21;18.75;;;3.50;;
51883;SDS011;37915;53.254;6.598;2023-01-13T07:49:47;17.27;;;4.05;;
51883;SDS011;37915;53.254;6.598;2023-01-13T07:52:13;18.75;;;4.53;;
51883;SDS011;37915;53.254;6.598;2023-01-13T07:54:39;18.85;;;3.50;;
51883;SDS011;37915;53.254;6.598;2023-01-13T07:57:06;14.35;;;4.55;;
51883;SDS011;37915;53.254;6.598;2023-01-13T07:59:32;21.33;;;4.28;;
51883;SDS011;37915;53.254;6.598;2023-01-13T08:01:58;22.48;;;4.43;;
51883;SDS011;37915;53.254;6.598;2023-01-13T08:04:24;20.80;;;4.45;;
51883;SDS011;37915;53.254;6.598;2023-01-13T08:06:50;16.65;;;4.70;;
51883;SDS011;37915;53.254;6.598;2023-01-13T08:09:16;20.05;;;4.47;;
51883;SDS011;37915;53.254;6.598;2023-01-13T08:11:42;15.07;;;3.85;;
51883;SDS011;37915;53.254;6.598;2023-01-13T08:14:08;13.57;;;4.05;;
51883;SDS011;37915;53.254;6.598;2023-01-13T08:16:33;18.13;;;4.43;;
51883;SDS011;37915;53.254;6.598;2023-01-13T08:18:59;18.88;;;4.28;;
51883;SDS011;37915;53.254;6.598;2023-01-13T08:21:25;18.23;;;4.28;;
51883;SDS011;37915;53.254;6.598;2023-01-13T08:23:51;24.45;;;4.75;;
51883;SDS011;37915;53.254;6.598;2023-01-13T08:26:17;20.45;;;4.15;;
51883;SDS011;37915;53.254;6.598;2023-01-13T08:28:44;15.63;;;4.15;;
51883;SDS011;37915;53.254;6.598;2023-01-13T08:31:13;19.90;;;4.20;;
51883;SDS011;37915;53.254;6.598;2023-01-13T08:33:40;20.48;;;3.83;;
51883;SDS011;37915;53.254;6.598;2023-01-13T08:36:07;22.10;;;4.55;;
51883;SDS011;37915;53.254;6.598;2023-01-13T08:38:34;13.95;;;4.53;;
51883;SDS011;37915;53.254;6.598;2023-01-13T08:41:00;19.50;;;4.65;;
51883;SDS011;37915;53.254;6.598;2023-01-13T08:43:27;17.52;;;4.97;;
51883;SDS011;37915;53.254;6.598;2023-01-13T08:45:54;17.42;;;4.60;;
51883;SDS011;37915;53.254;6.598;2023-01-13T08:48:20;17.10;;;4.90;;
51883;SDS011;37915;53.254;6.598;2023-01-13T08:50:46;20.23;;;4.50;;
51883;SDS011;37915;53.254;6.598;2023-01-13T08:53:12;20.65;;;4.68;;
51883;SDS011;37915;53.254;6.598;2023-01-13T08:55:38;13.63;;;3.33;;
51883;SDS011;37915;53.254;6.598;2023-01-13T08:58:05;16.48;;;3.67;;
51883;SDS011;37915;53.254;6.598;2023-01-13T09:00:31;18.98;;;4.40;;
51883;SDS011;37915;53.254;6.598;2023-01-13T09:02:57;20.90;;;4.18;;
51883;SDS011;37915;53.254;6.598;2023-01-13T09:05:23;19.48;;;4.00;;
51883;SDS011;37915;53.254;6.598;2023-01-13T09:07:49;19.10;;;4.68;;
51883;SDS011;37915;53.254;6.598;2023-01-13T09:10:15;22.85;;;4.60;;
51883;SDS011;37915;53.254;6.598;2023-01-13T09:12:41;20.92;;;5.18;;
51883;SDS011;37915;53.254;6.598;2023-01-13T09:15:25;20.45;;;4.68;;
51883;SDS011;37915;53.254;6.598;2023-01-13T09:17:51;14.15;;;3.53;;
51883;SDS011;37915;53.254;6.598;2023-01-13T09:20:17;19.42;;;4.15;;
51883;SDS011;37915;53.254;6.598;2023-01-13T09:22:43;11.55;;;3.97;;
51883;SDS011;37915;53.254;6.598;2023-01-13T09:25:08;17.30;;;4.10;;
51883;SDS011;37915;53.254;6.598;2023-01-13T09:27:36;18.05;;;3.58;;
51883;SDS011;37915;53.254;6.598;2023-01-13T09:30:02;17.00;;;3.25;;
51883;SDS011;37915;53.254;6.598;2023-01-13T09:32:29;13.85;;;3.97;;
51883;SDS011;37915;53.254;6.598;2023-01-13T09:34:54;16.63;;;3.67;;
51883;SDS011;37915;53.254;6.598;2023-01-13T09:37:27;12.88;;;2.88;;
51883;SDS011;37915;53.254;6.598;2023-01-13T09:40:00;14.65;;;3.88;;
51883;SDS011;37915;53.254;6.598;2023-01-13T09:48:59;14.17;;;3.40;;
51883;SDS011;37915;53.254;6.598;2023-01-13T09:51:32;15.25;;;4.07;;
51883;SDS011;37915;53.254;6.598;2023-01-13T09:54:21;16.45;;;4.53;;
51883;SDS011;37915;53.254;6.598;2023-01-13T09:56:52;18.70;;;4.47;;
51883;SDS011;37915;53.254;6.598;2023-01-13T09:59:18;15.90;;;4.10;;
51883;SDS011;37915;53.254;6.598;2023-01-13T10:04:13;15.90;;;4.35;;
51883;SDS011;37915;53.254;6.598;2023-01-13T10:06:41;15.68;;;3.67;;
51883;SDS011;37915;53.254;6.598;2023-01-13T10:09:17;19.65;;;6.53;;
51883;SDS011;37915;53.254;6.598;2023-01-13T10:11:50;21.60;;;5.30;;
51883;SDS011;37915;53.254;6.598;2023-01-13T10:14:40;19.65;;;4.28;;
51883;SDS011;37915;53.254;6.598;2023-01-13T10:28:11;13.02;;;3.25;;
51883;SDS011;37915;53.254;6.598;2023-01-13T10:30:40;17.52;;;4.22;;
51883;SDS011;37915;53.254;6.598;2023-01-13T10:35:54;19.67;;;3.83;;
51883;SDS011;37915;53.254;6.598;2023-01-13T10:43:41;16.67;;;4.18;;
51883;SDS011;37915;53.254;6.598;2023-01-13T10:46:16;18.30;;;4.10;;
51883;SDS011;37915;53.254;6.598;2023-01-13T10:48:54;13.23;;;4.50;;
51883;SDS011;37915;53.254;6.598;2023-01-13T10:51:25;13.93;;;3.40;;
51883;SDS011;37915;53.254;6.598;2023-01-13T10:56:25;23.88;;;4.50;;
51883;SDS011;37915;53.254;6.598;2023-01-13T10:59:04;15.48;;;3.88;;
51883;SDS011;37915;53.254;6.598;2023-01-13T11:01:37;19.05;;;5.72;;
51883;SDS011;37915;53.254;6.598;2023-01-13T11:04:23;18.38;;;4.15;;
51883;SDS011;37915;53.254;6.598;2023-01-13T11:06:54;19.25;;;3.92;;
51883;SDS011;37915;53.254;6.598;2023-01-13T11:09:21;10.43;;;3.10;;
51883;SDS011;37915;53.254;6.598;2023-01-13T11:11:49;17.23;;;3.63;;
51883;SDS011;37915;53.254;6.598;2023-01-13T11:14:21;21.58;;;4.35;;
51883;SDS011;37915;53.254;6.598;2023-01-13T11:20:04;20.10;;;3.97;;
51883;SDS011;37915;53.254;6.598;2023-01-13T11:22:44;13.65;;;3.15;;
51883;SDS011;37915;53.254;6.598;2023-01-13T11:25:20;15.20;;;3.42;;
51883;SDS011;37915;53.254;6.598;2023-01-13T11:28:03;7.15;;;3.10;;
51883;SDS011;37915;53.254;6.598;2023-01-13T11:33:19;14.52;;;3.17;;
51883;SDS011;37915;53.254;6.598;2023-01-13T11:38:57;17.33;;;4.13;;
51883;SDS011;37915;53.254;6.598;2023-01-13T11:46:39;19.45;;;4.10;;
51883;SDS011;37915;53.254;6.598;2023-01-13T11:49:05;9.25;;;3.10;;
51883;SDS011;37915;53.254;6.598;2023-01-13T11:56:51;12.63;;;3.42;;
51883;SDS011;37915;53.254;6.598;2023-01-13T12:16:49;13.60;;;3.25;;
51883;SDS011;37915;53.254;6.598;2023-01-13T12:19:24;11.60;;;3.45;;
51883;SDS011;37915;53.254;6.598;2023-01-13T12:22:10;11.38;;;3.08;;
51883;SDS011;37915;53.254;6.598;2023-01-13T12:30:49;17.92;;;3.25;;
51883;SDS011;37915;53.254;6.598;2023-01-13T12:35:48;11.73;;;2.90;;
51883;SDS011;37915;53.254;6.598;2023-01-13T12:38:26;10.25;;;3.53;;
51883;SDS011;37915;53.254;6.598;2023-01-13T12:43:38;10.02;;;3.17;;
51883;SDS011;37915;53.254;6.598;2023-01-13T12:51:21;11.07;;;2.78;;
51883;SDS011;37915;53.254;6.598;2023-01-13T12:53:52;12.10;;;2.97;;
51883;SDS011;37915;53.254;6.598;2023-01-13T12:56:19;19.00;;;3.38;;
51883;SDS011;37915;53.254;6.598;2023-01-13T12:58:46;13.82;;;2.92;;
51883;SDS011;37915;53.254;6.598;2023-01-13T13:01:12;12.18;;;2.85;;
51883;SDS011;37915;53.254;6.598;2023-01-13T13:03:39;16.10;;;3.15;;
51883;SDS011;37915;53.254;6.598;2023-01-13T13:19:52;7.78;;;2.60;;
51883;SDS011;37915;53.254;6.598;2023-01-13T13:30:02;10.68;;;3.22;;
51883;SDS011;37915;53.254;6.598;2023-01-13T13:36:07;11.00;;;2.72;;
51883;SDS011;37915;53.254;6.598;2023-01-13T13:41:29;9.13;;;2.40;;
51883;SDS011;37915;53.254;6.598;2023-01-13T13:44:24;11.40;;;2.92;;
51883;SDS011;37915;53.254;6.598;2023-01-13T13:47:11;10.98;;;2.55;;
51883;SDS011;37915;53.254;6.598;2023-01-13T13:49:41;9.82;;;2.55;;
51883;SDS011;37915;53.254;6.598;2023-01-13T13:52:22;13.82;;;3.33;;
51883;SDS011;37915;53.254;6.598;2023-01-13T13:54:55;11.18;;;2.88;;
51883;SDS011;37915;53.254;6.598;2023-01-13T13:57:36;11.50;;;3.08;;
51883;SDS011;37915;53.254;6.598;2023-01-13T14:02:53;10.05;;;2.28;;
51883;SDS011;37915;53.254;6.598;2023-01-13T14:05:29;8.77;;;2.80;;
51883;SDS011;37915;53.254;6.598;2023-01-13T14:08:08;11.48;;;3.10;;
51883;SDS011;37915;53.254;6.598;2023-01-13T14:10:39;6.18;;;2.35;;
51883;SDS011;37915;53.254;6.598;2023-01-13T14:15:40;14.25;;;2.85;;
51883;SDS011;37915;53.254;6.598;2023-01-13T14:18:13;11.40;;;2.65;;
51883;SDS011;37915;53.254;6.598;2023-01-13T14:20:45;11.43;;;3.13;;
51883;SDS011;37915;53.254;6.598;2023-01-13T14:23:17;9.52;;;2.45;;
51883;SDS011;37915;53.254;6.598;2023-01-13T14:25:49;12.13;;;3.38;;
51883;SDS011;37915;53.254;6.598;2023-01-13T14:30:48;12.98;;;3.13;;
51883;SDS011;37915;53.254;6.598;2023-01-13T14:33:15;9.73;;;2.85;;
51883;SDS011;37915;53.254;6.598;2023-01-13T14:36:02;10.50;;;2.40;;
51883;SDS011;37915;53.254;6.598;2023-01-13T14:38:35;13.48;;;4.10;;
51883;SDS011;37915;53.254;6.598;2023-01-13T14:41:11;15.98;;;3.10;;
51883;SDS011;37915;53.254;6.598;2023-01-13T14:43:52;16.77;;;3.83;;
51883;SDS011;37915;53.254;6.598;2023-01-13T14:46:21;12.00;;;2.85;;
51883;SDS011;37915;53.254;6.598;2023-01-13T14:48:51;13.55;;;3.38;;
51883;SDS011;37915;53.254;6.598;2023-01-13T14:51:28;15.43;;;3.58;;
51883;SDS011;37915;53.254;6.598;2023-01-13T14:53:55;18.17;;;4.30;;
51883;SDS011;37915;53.254;6.598;2023-01-13T14:56:35;18.65;;;3.20;;
51883;SDS011;37915;53.254;6.598;2023-01-13T15:04:48;15.23;;;4.13;;
51883;SDS011;37915;53.254;6.598;2023-01-13T15:07:27;12.65;;;3.25;;
51883;SDS011;37915;53.254;6.598;2023-01-13T15:09:59;8.10;;;2.00;;
51883;SDS011;37915;53.254;6.598;2023-01-13T15:12:33;5.15;;;1.70;;
51883;SDS011;37915;53.254;6.598;2023-01-13T15:15:19;6.22;;;1.77;;
51883;SDS011;37915;53.254;6.598;2023-01-13T15:18:01;8.68;;;1.73;;
51883;SDS011;37915;53.254;6.598;2023-01-13T15:20:38;5.57;;;1.73;;
51883;SDS011;37915;53.254;6.598;2023-01-13T15:23:04;5.45;;;1.95;;
51883;SDS011;37915;53.254;6.598;2023-01-13T15:25:30;10.00;;;3.30;;
51883;SDS011;37915;53.254;6.598;2023-01-13T15:27:57;8.27;;;2.13;;
51883;SDS011;37915;53.254;6.598;2023-01-13T15:30:24;15.65;;;2.95;;
51883;SDS011;37915;53.254;6.598;2023-01-13T15:32:55;10.25;;;2.22;;
51883;SDS011;37915;53.254;6.598;2023-01-13T15:35:22;8.88;;;2.90;;
51883;SDS011;37915;53.254;6.598;2023-01-13T15:37:49;11.80;;;2.83;;
51883;SDS011;37915;53.254;6.598;2023-01-13T15:40:28;10.82;;;2.60;;
51883;SDS011;37915;53.254;6.598;2023-01-13T15:42:56;9.82;;;3.00;;
51883;SDS011;37915;53.254;6.598;2023-01-13T15:45:40;10.02;;;2.65;;
51883;SDS011;37915;53.254;6.598;2023-01-13T15:48:25;4.95;;;1.65;;
51883;SDS011;37915;53.254;6.598;2023-01-13T15:50:54;4.78;;;1.80;;
51883;SDS011;37915;53.254;6.598;2023-01-13T15:53:20;4.40;;;1.35;;
51883;SDS011;37915;53.254;6.598;2023-01-13T15:55:48;7.75;;;1.35;;
51883;SDS011;37915;53.254;6.598;2023-01-13T15:58:17;5.47;;;1.60;;
51883;SDS011;37915;53.254;6.598;2023-01-13T16:00:45;6.65;;;1.48;;
51883;SDS011;37915;53.254;6.598;2023-01-13T16:03:11;6.75;;;1.50;;
51883;SDS011;37915;53.254;6.598;2023-01-13T16:05:38;6.78;;;1.50;;
51883;SDS011;37915;53.254;6.598;2023-01-13T16:08:04;7.85;;;1.95;;
51883;SDS011;37915;53.254;6.598;2023-01-13T16:10:33;9.90;;;2.85;;
51883;SDS011;37915;53.254;6.598;2023-01-13T16:12:59;10.63;;;2.85;;
51883;SDS011;37915;53.254;6.598;2023-01-13T16:15:25;5.63;;;2.00;;
51883;SDS011;37915;53.254;6.598;2023-01-13T16:17:55;11.55;;;3.10;;
51883;SDS011;37915;53.254;6.598;2023-01-13T16:20:24;11.98;;;2.60;;
51883;SDS011;37915;53.254;6.598;2023-01-13T16:22:50;11.30;;;2.92;;
51883;SDS011;37915;53.254;6.598;2023-01-13T16:25:16;16.80;;;3.83;;
51883;SDS011;37915;53.254;6.598;2023-01-13T16:27:44;7.75;;;2.10;;
51883;SDS011;37915;53.254;6.598;2023-01-13T16:32:54;12.90;;;3.40;;
51883;SDS011;37915;53.254;6.598;2023-01-13T16:35:20;6.40;;;2.17;;
51883;SDS011;37915;53.254;6.598;2023-01-13T16:37:46;8.68;;;2.13;;
51883;SDS011;37915;53.254;6.598;2023-01-13T16:40:23;12.43;;;2.28;;
51883;SDS011;37915;53.254;6.598;2023-01-13T16:42:51;7.82;;;2.25;;
51883;SDS011;37915;53.254;6.598;2023-01-13T16:45:17;9.38;;;2.60;;
51883;SDS011;37915;53.254;6.598;2023-01-13T16:47:43;8.85;;;2.85;;
51883;SDS011;37915;53.254;6.598;2023-01-13T16:50:21;12.77;;;2.95;;
51883;SDS011;37915;53.254;6.598;2023-01-13T16:53:05;7.97;;;2.83;;
51883;SDS011;37915;53.254;6.598;2023-01-13T16:55:34;14.55;;;3.60;;
51883;SDS011;37915;53.254;6.598;2023-01-13T16:58:00;7.85;;;2.72;;
51883;SDS011;37915;53.254;6.598;2023-01-13T17:00:27;13.73;;;3.75;;
51883;SDS011;37915;53.254;6.598;2023-01-13T17:02:52;9.40;;;2.97;;
51883;SDS011;37915;53.254;6.598;2023-01-13T17:05:18;10.60;;;2.65;;
51883;SDS011;37915;53.254;6.598;2023-01-13T17:07:44;10.43;;;2.17;;
51883;SDS011;37915;53.254;6.598;2023-01-13T17:10:12;11.63;;;2.63;;
51883;SDS011;37915;53.254;6.598;2023-01-13T17:12:43;15.10;;;3.13;;
51883;SDS011;37915;53.254;6.598;2023-01-13T17:15:10;11.02;;;3.15;;
51883;SDS011;37915;53.254;6.598;2023-01-13T17:17:37;11.68;;;3.10;;
51883;SDS011;37915;53.254;6.598;2023-01-13T17:20:02;10.18;;;2.50;;
51883;SDS011;37915;53.254;6.598;2023-01-13T17:22:29;10.75;;;2.63;;
51883;SDS011;37915;53.254;6.598;2023-01-13T17:24:55;10.38;;;2.47;;
51883;SDS011;37915;53.254;6.598;2023-01-13T17:27:20;8.27;;;2.42;;
51883;SDS011;37915;53.254;6.598;2023-01-13T17:29:47;11.45;;;2.03;;
51883;SDS011;37915;53.254;6.598;2023-01-13T17:32:17;9.73;;;2.67;;
51883;SDS011;37915;53.254;6.598;2023-01-13T17:34:44;12.82;;;3.28;;
51883;SDS011;37915;53.254;6.598;2023-01-13T17:37:10;15.77;;;3.10;;